Time;durP1;ratioP1;P1;durP2;ratioP2;P2;SDS_P1;SDS_P2;PMS_P1;PMS_P2;Temp;Humidity;BMP_temperature;BMP_pressure;BME280_temperature;BME280_humidity;BME280_pressure;Samples;Min_cycle;Max_cycle;Signal;HPM_P1;HPM_P2
2024/02/08 00:00:57;;;;;;;2.53;2.08;;;7.60;99.90;;;;;;6054900;23;20054;-79
2024/02/08 00:03:44;;;;;;;3.67;2.00;;;7.50;99.90;;;;;;6062573;23;20027;-79
2024/02/08 00:06:32;;;;;;;2.60;2.08;;;7.60;99.90;;;;;;6067346;23;20031;-79
2024/02/08 00:09:22;;;;;;;1.98;1.88;;;7.60;99.90;;;;;;6045200;23;20027;-79
2024/02/08 00:12:11;;;;;;;2.60;2.05;;;7.50;99.90;;;;;;6058609;23;20031;-79
2024/02/08 00:14:59;;;;;;;2.53;1.73;;;7.50;99.90;;;;;;6053864;23;20031;-81
2024/02/08 00:17:47;;;;;;;3.45;1.98;;;7.50;99.90;;;;;;6055675;23;20023;-81
2024/02/08 00:20:34;;;;;;;2.00;1.80;;;7.50;99.90;;;;;;6058215;23;20478;-80
2024/02/08 00:23:22;;;;;;;2.63;2.03;;;7.50;99.90;;;;;;6055054;23;20407;-79
2024/02/08 00:26:10;;;;;;;3.08;1.60;;;7.50;99.90;;;;;;6055100;23;20027;-80
2024/02/08 00:29:00;;;;;;;3.45;2.03;;;7.50;99.90;;;;;;6034738;23;20054;-81
2024/02/08 00:31:48;;;;;;;3.28;1.98;;;7.50;99.90;;;;;;6052422;23;20075;-81
2024/02/08 00:34:40;;;;;;;3.17;2.20;;;7.50;99.90;;;;;;6057269;23;20154;-82
2024/02/08 00:37:28;;;;;;;2.83;2.38;;;7.50;99.90;;;;;;6057617;23;20030;-81
2024/02/08 00:40:17;;;;;;;2.90;2.25;;;7.50;99.90;;;;;;6058716;23;20023;-81
2024/02/08 00:43:09;;;;;;;3.65;1.90;;;7.50;99.90;;;;;;6057859;23;20374;-81
2024/02/08 00:45:57;;;;;;;2.08;1.80;;;7.50;99.90;;;;;;6036473;23;20046;-81
2024/02/08 00:48:46;;;;;;;1.83;1.70;;;7.50;99.90;;;;;;6057867;23;20030;-82
2024/02/08 00:51:34;;;;;;;4.90;2.05;;;7.50;99.90;;;;;;6064861;23;20026;-79
2024/02/08 00:54:26;;;;;;;1.95;1.60;;;7.50;99.90;;;;;;6066218;23;20027;-80
2024/02/08 00:57:15;;;;;;;2.33;1.90;;;7.60;99.90;;;;;;6063593;23;20026;-80
2024/02/08 01:00:04;;;;;;;2.70;1.98;;;7.50;99.90;;;;;;6058396;23;20031;-81
2024/02/08 01:02:52;;;;;;;2.75;2.17;;;7.50;99.90;;;;;;6057071;23;20050;-81
2024/02/08 01:05:41;;;;;;;2.50;1.80;;;7.50;99.90;;;;;;6063262;23;20035;-79
2024/02/08 01:08:29;;;;;;;1.75;1.50;;;7.50;99.90;;;;;;6037183;23;20050;-80
2024/02/08 01:11:17;;;;;;;2.95;1.80;;;7.50;99.90;;;;;;6036711;23;20480;-80
2024/02/08 01:14:05;;;;;;;3.05;1.80;;;7.50;99.90;;;;;;6061901;23;20082;-81
2024/02/08 01:16:54;;;;;;;1.90;1.80;;;7.50;99.90;;;;;;6063668;23;20106;-81
2024/02/08 01:19:42;;;;;;;1.77;1.67;;;7.60;99.90;;;;;;6060543;23;20027;-81
2024/02/08 01:22:30;;;;;;;2.30;1.95;;;7.50;99.90;;;;;;6057985;23;20026;-81
2024/02/08 01:25:18;;;;;;;2.20;1.73;;;7.60;99.90;;;;;;6058348;23;20260;-80
2024/02/08 01:28:07;;;;;;;2.42;1.83;;;7.60;99.90;;;;;;6064380;23;20027;-81
2024/02/08 01:30:57;;;;;;;3.05;1.80;;;7.60;99.90;;;;;;6057700;23;20053;-81
2024/02/08 01:33:48;;;;;;;3.15;2.25;;;7.70;99.90;;;;;;6037317;23;20034;-80
2024/02/08 01:36:40;;;;;;;3.50;2.28;;;7.70;99.90;;;;;;6043477;23;20023;-80
2024/02/08 01:39:27;;;;;;;2.35;2.00;;;7.70;99.90;;;;;;6068995;23;20054;-81
2024/02/08 01:42:16;;;;;;;2.45;1.90;;;7.70;99.90;;;;;;6043878;23;20026;-81
2024/02/08 01:45:31;;;;;;;2.80;1.73;;;7.70;99.90;;;;;;6059692;23;20034;-81
2024/02/08 01:48:18;;;;;;;2.58;1.50;;;7.70;99.90;;;;;;6051057;23;20054;-80
2024/02/08 01:51:11;;;;;;;2.55;2.10;;;7.70;99.90;;;;;;6067419;23;20027;-81
2024/02/08 01:54:01;;;;;;;3.05;2.00;;;7.70;99.90;;;;;;6046353;23;20056;-81
2024/02/08 01:56:48;;;;;;;2.17;1.80;;;7.70;99.90;;;;;;6055424;23;20105;-81
2024/02/08 01:59:39;;;;;;;3.33;1.67;;;7.70;99.90;;;;;;6076485;23;20031;-81
2024/02/08 02:02:28;;;;;;;4.32;1.90;;;7.70;99.90;;;;;;6057078;23;20034;-80
2024/02/08 02:05:17;;;;;;;3.75;1.80;;;7.80;99.90;;;;;;6076502;23;20030;-80
2024/02/08 02:08:08;;;;;;;2.40;2.03;;;7.80;99.90;;;;;;6077487;23;20031;-80
2024/02/08 02:11:29;;;;;;;2.38;1.60;;;7.80;99.90;;;;;;6058488;23;20041;-80
2024/02/08 02:14:17;;;;;;;1.95;1.60;;;7.80;99.90;;;;;;6059141;23;20038;-81
2024/02/08 02:17:10;;;;;;;2.45;1.70;;;7.80;99.90;;;;;;6056599;23;20048;-80
2024/02/08 02:20:05;;;;;;;3.58;1.88;;;7.80;99.90;;;;;;6056312;23;20478;-80
2024/02/08 02:22:54;;;;;;;2.00;1.70;;;7.80;99.90;;;;;;6055982;23;20026;-80
2024/02/08 02:25:44;;;;;;;3.25;2.20;;;7.80;99.90;;;;;;6036898;23;20403;-79
2024/02/08 02:28:33;;;;;;;2.53;2.13;;;7.80;99.90;;;;;;6058516;23;20030;-81
2024/02/08 02:31:23;;;;;;;2.33;1.80;;;7.80;99.90;;;;;;6057493;23;20772;-81
2024/02/08 02:34:12;;;;;;;2.83;1.95;;;7.80;99.90;;;;;;6068554;23;20026;-80
2024/02/08 02:37:00;;;;;;;4.10;2.00;;;7.70;99.90;;;;;;6031901;23;20094;-81
2024/02/08 02:39:49;;;;;;;2.95;2.03;;;7.70;99.90;;;;;;6068545;23;20540;-80
2024/02/08 02:42:38;;;;;;;2.67;1.95;;;7.70;99.90;;;;;;6054914;23;20532;-80
2024/02/08 02:45:28;;;;;;;2.42;1.88;;;7.60;99.90;;;;;;6062787;23;20034;-81
2024/02/08 02:48:18;;;;;;;6.10;2.25;;;7.60;99.90;;;;;;6050106;23;20126;-80
2024/02/08 02:51:11;;;;;;;3.28;2.20;;;7.70;99.90;;;;;;6090645;23;20027;-79
2024/02/08 02:53:59;;;;;;;2.58;1.63;;;7.70;99.90;;;;;;6055547;23;20045;-79
2024/02/08 02:56:50;;;;;;;3.45;1.90;;;7.70;99.90;;;;;;6057518;23;20130;-81
2024/02/08 02:59:37;;;;;;;2.50;1.80;;;7.70;99.90;;;;;;6057149;23;20362;-80
2024/02/08 03:02:28;;;;;;;2.08;1.88;;;7.70;99.90;;;;;;6036938;23;20031;-79
2024/02/08 03:05:18;;;;;;;1.92;1.70;;;7.70;99.90;;;;;;6037287;23;20029;-81
2024/02/08 03:08:06;;;;;;;2.47;1.80;;;7.70;99.90;;;;;;6056581;23;20031;-81
2024/02/08 03:10:56;;;;;;;3.88;1.55;;;7.70;99.90;;;;;;6065240;23;20030;-80
2024/02/08 03:13:45;;;;;;;2.78;1.45;;;7.70;99.90;;;;;;6074343;23;20014;-80
2024/02/08 03:16:36;;;;;;;1.50;1.40;;;7.70;99.90;;;;;;6074366;23;20026;-81
2024/02/08 03:19:24;;;;;;;1.67;1.58;;;7.70;99.90;;;;;;6055673;23;20038;-80
2024/02/08 03:22:12;;;;;;;1.50;1.20;;;7.80;99.90;;;;;;6082093;23;20031;-79
2024/02/08 03:25:06;;;;;;;1.00;1.00;;;7.80;99.90;;;;;;6080143;23;20059;-80
2024/02/08 03:27:55;;;;;;;1.35;1.10;;;7.80;99.90;;;;;;6071123;23;20369;-82
2024/02/08 03:30:43;;;;;;;1.48;1.17;;;7.80;99.90;;;;;;6062112;23;20027;-80
2024/02/08 03:33:31;;;;;;;1.77;1.20;;;7.80;99.90;;;;;;6065607;23;20027;-81
2024/02/08 03:36:23;;;;;;;1.05;1.05;;;7.80;99.90;;;;;;6067478;23;20366;-81
2024/02/08 03:39:24;;;;;;;0.98;0.93;;;7.90;99.90;;;;;;6037706;23;20033;-81
2024/02/08 03:42:16;;;;;;;2.25;1.20;;;7.90;99.90;;;;;;6036798;23;20034;-80
2024/02/08 03:45:06;;;;;;;1.30;1.10;;;7.80;99.90;;;;;;6057434;23;20722;-81
2024/02/08 03:47:58;;;;;;;0.90;0.90;;;7.90;99.90;;;;;;6068536;23;20469;-81
2024/02/08 03:50:50;;;;;;;1.02;1.02;;;7.90;99.90;;;;;;6062304;23;20030;-81
2024/02/08 03:53:37;;;;;;;2.25;1.42;;;7.90;99.90;;;;;;6035272;23;20035;-81
2024/02/08 03:56:26;;;;;;;1.10;1.05;;;7.90;99.90;;;;;;6056915;23;20533;-80
2024/02/08 03:59:26;;;;;;;1.20;1.10;;;7.90;99.90;;;;;;6060725;23;20034;-81
2024/02/08 04:02:13;;;;;;;1.30;1.20;;;8.00;99.90;;;;;;6059861;23;20031;-80
2024/02/08 04:05:09;;;;;;;2.25;1.10;;;8.00;99.90;;;;;;6057010;23;20023;-81
2024/02/08 04:07:59;;;;;;;1.92;1.42;;;7.90;99.90;;;;;;6055511;23;20031;-81
2024/02/08 04:54:20;;;;;;;1.98;1.55;;;7.80;99.90;;;;;;6062570;23;20050;-80
2024/02/08 04:57:10;;;;;;;1.50;1.40;;;7.90;99.90;;;;;;6067695;23;20370;-82
2024/02/08 04:59:59;;;;;;;1.42;1.23;;;7.90;99.90;;;;;;6061239;23;20738;-81
2024/02/08 05:02:49;;;;;;;2.97;1.38;;;7.90;99.90;;;;;;6056706;23;20027;-81
2024/02/08 05:05:43;;;;;;;1.30;1.20;;;7.90;99.90;;;;;;6060790;23;20026;-81
2024/02/08 05:08:32;;;;;;;1.40;1.30;;;7.90;99.90;;;;;;6056740;23;20030;-80
2024/02/08 05:11:19;;;;;;;1.30;1.20;;;8.00;99.90;;;;;;6058597;23;20027;-81
2024/02/08 05:14:08;;;;;;;2.35;1.30;;;8.00;99.90;;;;;;6056928;23;20051;-79
2024/02/08 05:16:55;;;;;;;1.75;1.40;;;8.00;99.90;;;;;;6055498;23;20119;-81
2024/02/08 05:19:43;;;;;;;1.10;1.00;;;7.90;99.90;;;;;;6036564;23;20023;-81
2024/02/08 05:22:33;;;;;;;1.58;1.20;;;7.90;99.90;;;;;;6060281;23;20031;-84
2024/02/08 05:25:24;;;;;;;1.37;1.27;;;7.90;99.90;;;;;;6042265;23;20026;-83
2024/02/08 05:28:15;;;;;;;3.72;1.85;;;7.90;99.90;;;;;;6045915;23;20041;-82
2024/02/08 05:31:03;;;;;;;3.28;1.50;;;7.90;99.90;;;;;;6073342;23;20033;-83
2024/02/08 05:33:54;;;;;;;1.45;1.30;;;7.90;99.90;;;;;;6060960;23;20105;-82
2024/02/08 05:36:45;;;;;;;2.00;1.70;;;7.80;99.90;;;;;;6066395;23;20107;-83
2024/02/08 05:39:33;;;;;;;5.15;2.97;;;7.90;99.90;;;;;;6070639;23;20027;-81
2024/02/08 05:42:24;;;;;;;2.95;2.05;;;7.90;99.90;;;;;;6044602;23;20026;-81
2024/02/08 05:45:20;;;;;;;3.33;1.95;;;7.90;99.90;;;;;;6037967;23;20030;-81
2024/02/08 05:48:07;;;;;;;1.73;1.63;;;7.80;99.90;;;;;;6057981;23;20491;-81
2024/02/08 05:50:57;;;;;;;4.15;1.30;;;7.90;99.90;;;;;;6056202;23;20041;-80
2024/02/08 05:53:44;;;;;;;2.13;1.63;;;7.90;99.90;;;;;;6062312;23;20031;-81
2024/02/08 05:56:39;;;;;;;2.58;1.60;;;7.90;99.90;;;;;;6035315;23;20027;-81
2024/02/08 05:59:29;;;;;;;2.25;1.50;;;7.90;99.90;;;;;;6057837;23;20417;-79
2024/02/08 06:02:22;;;;;;;3.28;2.58;;;7.90;99.90;;;;;;6040873;23;20027;-79
2024/02/08 06:05:17;;;;;;;9.75;4.97;;;7.90;99.90;;;;;;6062456;23;20121;-82
2024/02/08 06:08:25;;;;;;;1.77;1.55;;;7.90;99.90;;;;;;6057362;23;20027;-79
2024/02/08 06:11:27;;;;;;;1.60;1.50;;;7.90;99.90;;;;;;6029850;23;20370;-80
2024/02/08 06:14:22;;;;;;;;;;;7.90;99.90;;;;;;6062073;23;20058;-82
2024/02/08 06:17:09;;;;;;;3.55;2.13;;;7.90;99.90;;;;;;6044398;23;20345;-80
2024/02/08 06:19:57;;;;;;;2.72;2.10;;;7.90;99.90;;;;;;6037134;23;20026;-81
2024/02/08 06:22:48;;;;;;;3.58;2.28;;;7.90;99.90;;;;;;6079106;23;20027;-80
2024/02/08 06:25:36;;;;;;;3.40;2.78;;;7.90;99.90;;;;;;6077669;23;20038;-80
2024/02/08 06:28:26;;;;;;;2.95;2.65;;;7.80;99.90;;;;;;6059930;23;20058;-78
2024/02/08 06:31:29;;;;;;;2.35;1.90;;;7.80;99.90;;;;;;6062490;23;20027;-81
2024/02/08 06:34:42;;;;;;;2.38;1.88;;;7.80;99.90;;;;;;6057770;23;20125;-79
2024/02/08 06:37:31;;;;;;;2.65;2.40;;;7.80;99.90;;;;;;6035246;23;20090;-80
2024/02/08 06:40:24;;;;;;;4.93;2.92;;;7.80;99.90;;;;;;6056276;23;20570;-80
2024/02/08 06:46:17;;;;;;;8.77;3.40;;;7.80;99.90;;;;;;6054088;23;19917;-80
2024/02/08 07:37:14;;;;;;;6.05;4.32;;;7.80;99.90;;;;;;6035888;23;20054;-79
2024/02/08 07:43:16;;;;;;;2.00;1.80;;;8.10;99.90;;;;;;6048458;23;20022;-80
2024/02/08 07:45:31;;;;;;;3.83;2.30;;;8.10;99.90;;;;;;6055959;23;20027;-77
2024/02/08 07:48:39;;;;;;;1.70;1.60;;;8.10;99.90;;;;;;6066906;23;20058;-81
2024/02/08 07:51:28;;;;;;;3.75;1.88;;;8.10;99.90;;;;;;6067240;23;20591;-81
2024/02/08 07:54:23;;;;;;;2.58;1.60;;;8.10;99.90;;;;;;6067408;23;20094;-79
2024/02/08 07:57:11;;;;;;;1.90;1.70;;;8.10;99.90;;;;;;6058321;23;20047;-82
2024/02/08 08:00:00;;;;;;;1.73;1.63;;;8.10;99.90;;;;;;6036981;23;20027;-80
2024/02/08 08:02:49;;;;;;;1.92;1.70;;;8.20;99.90;;;;;;6035299;23;20520;-82
2024/02/08 08:05:41;;;;;;;2.00;1.33;;;8.20;99.90;;;;;;6060967;23;20571;-80
2024/02/08 08:08:32;;;;;;;2.08;1.88;;;8.20;99.90;;;;;;6058297;23;20398;-80
2024/02/08 08:11:25;;;;;;;3.97;2.30;;;8.20;99.90;;;;;;6072813;23;20026;-80
2024/02/08 08:15:04;;;;;;;2.22;2.03;;;8.30;99.90;;;;;;6076468;23;20033;-80
2024/02/08 08:20:15;;;;;;;2.85;2.05;;;8.30;99.90;;;;;;6070090;23;20023;-80
2024/02/08 08:23:07;;;;;;;2.10;1.75;;;8.30;99.90;;;;;;6037192;23;20023;-79
2024/02/08 08:29:04;;;;;;;2.15;1.90;;;8.40;99.90;;;;;;6056104;23;20026;-80
2024/02/08 08:31:52;;;;;;;1.80;1.60;;;8.50;99.90;;;;;;6032599;23;20026;-80
2024/02/08 08:38:13;;;;;;;1.40;1.30;;;8.60;99.90;;;;;;6056848;23;20062;-80
2024/02/08 08:41:06;;;;;;;1.63;1.35;;;8.60;99.90;;;;;;6058068;23;20030;-80
2024/02/08 08:43:55;;;;;;;1.52;1.27;;;8.60;99.90;;;;;;6035752;23;20026;-80
2024/02/08 08:46:44;;;;;;;1.30;1.20;;;8.60;99.90;;;;;;6036323;23;20110;-81
2024/02/08 08:49:39;;;;;;;1.90;1.33;;;8.70;99.90;;;;;;6053253;23;20482;-80
2024/02/08 08:52:46;;;;;;;2.38;1.50;;;8.80;99.90;;;;;;6055639;23;20062;-80
2024/02/08 08:55:48;;;;;;;1.60;1.10;;;8.90;99.90;;;;;;6057812;23;20101;-80
2024/02/08 08:58:41;;;;;;;2.20;1.30;;;8.90;99.90;;;;;;6059904;23;20432;-79
2024/02/08 09:01:36;;;;;;;1.45;1.20;;;8.80;99.90;;;;;;6056348;23;20033;-81
2024/02/08 09:04:32;;;;;;;1.60;1.50;;;8.80;99.90;;;;;;6039372;23;20027;-80
2024/02/08 09:07:21;;;;;;;1.27;1.17;;;8.70;99.90;;;;;;6038246;23;20473;-81
2024/02/08 09:10:14;;;;;;;1.40;1.30;;;8.70;99.90;;;;;;6037064;23;20031;-80
2024/02/08 09:13:06;;;;;;;3.60;1.20;;;8.70;99.90;;;;;;6036249;23;20050;-81
2024/02/08 09:16:52;;;;;;;2.25;1.30;;;8.80;99.90;;;;;;6057364;23;20946;-81
2024/02/08 09:19:12;;;;;;;1.40;1.30;;;8.70;99.90;;;;;;6055393;23;20037;-81
2024/02/08 09:22:01;;;;;;;1.23;1.13;;;8.70;99.90;;;;;;6058004;23;20037;-81
2024/02/08 09:24:50;;;;;;;1.52;1.30;;;8.80;99.90;;;;;;6064247;23;20045;-81
2024/02/08 09:27:38;;;;;;;1.17;1.17;;;8.70;99.90;;;;;;6058054;23;20030;-79
2024/02/08 09:30:52;;;;;;;3.05;1.23;;;8.90;99.90;;;;;;6060738;23;20675;-79
2024/02/08 09:34:00;;;;;;;0.93;0.90;;;9.00;99.90;;;;;;6046240;23;20561;-78
2024/02/08 09:36:50;;;;;;;1.45;1.30;;;9.10;99.90;;;;;;6060115;23;20026;-79
2024/02/08 09:39:58;;;;;;;1.95;0.90;;;9.10;99.90;;;;;;6050959;23;20104;-79
2024/02/08 09:42:56;;;;;;;1.63;0.95;;;9.20;99.90;;;;;;6067572;23;20075;-77
2024/02/08 09:45:58;;;;;;;0.90;0.90;;;9.20;99.90;;;;;;6068526;23;20027;-77
2024/02/08 09:48:47;;;;;;;1.45;1.05;;;9.30;99.90;;;;;;6069846;23;20023;-80
2024/02/08 09:51:40;;;;;;;1.67;0.90;;;9.40;99.90;;;;;;6031820;23;20190;-80
2024/02/08 09:54:32;;;;;;;2.22;0.98;;;9.40;99.90;;;;;;6081913;23;20022;-79
2024/02/08 09:57:23;;;;;;;1.10;1.00;;;9.50;99.90;;;;;;6063093;23;20348;-78
2024/02/08 10:00:44;;;;;;;1.88;0.90;;;9.70;99.90;;;;;;6067544;23;20019;-81
2024/02/08 10:03:34;;;;;;;0.82;0.82;;;9.60;99.90;;;;;;6066219;23;20027;-78
2024/02/08 10:06:38;;;;;;;1.38;0.80;;;9.80;99.90;;;;;;6044259;23;20113;-78
2024/02/08 10:12:50;;;;;;;2.80;0.90;;;10.00;99.90;;;;;;6050714;23;20117;-79
2024/02/08 10:15:39;;;;;;;1.13;0.93;;;10.10;99.90;;;;;;6055491;23;20482;-78
2024/02/08 10:18:36;;;;;;;1.13;0.90;;;10.30;99.90;;;;;;6062602;23;20469;-80
2024/02/08 10:21:29;;;;;;;0.80;0.80;;;10.30;99.90;;;;;;6066844;23;20026;-80
2024/02/08 10:27:29;;;;;;;1.67;1.00;;;10.10;1.00;;;;;;6036974;23;20027;-79
2024/02/08 10:30:21;;;;;;;2.90;0.90;;;10.00;1.00;;;;;;6055981;23;20035;-78
2024/02/08 10:33:24;;;;;;;1.10;1.00;;;9.90;1.00;;;;;;6055477;23;20037;-79
2024/02/08 10:36:17;;;;;;;0.80;0.80;;;9.80;1.00;;;;;;6064432;23;20033;-80
2024/02/08 10:39:26;;;;;;;0.90;0.90;;;9.70;1.00;;;;;;6065317;23;20030;-80
2024/02/08 10:42:15;;;;;;;1.00;1.00;;;9.70;1.00;;;;;;6064781;23;20027;-78
2024/02/08 10:45:08;;;;;;;1.20;1.10;;;9.70;1.00;;;;;;6060753;23;20026;-80
2024/02/08 10:47:59;;;;;;;1.10;1.00;;;9.80;1.00;;;;;;6054258;23;20035;-80
2024/02/08 10:50:49;;;;;;;2.35;0.95;;;9.80;1.00;;;;;;6055206;23;20027;-79
2024/02/08 10:53:48;;;;;;;1.20;1.10;;;10.20;4.40;;;;;;6034465;23;20034;-78
2024/02/08 10:57:06;;;;;;;1.58;0.80;;;10.20;1.00;;;;;;6038832;23;20086;-79
2024/02/08 10:59:58;;;;;;;1.40;0.70;;;10.70;1.00;;;;;;6063628;23;20033;-80
2024/02/08 11:03:00;;;;;;;0.85;0.73;;;11.40;99.90;;;;;;6056014;23;20026;-80
2024/02/08 11:08:50;;;;;;;0.95;0.70;;;12.00;99.90;;;;;;6056788;23;20034;-80
2024/02/08 11:12:05;;;;;;;1.15;0.60;;;12.00;99.90;;;;;;6069025;23;20030;-79
2024/02/08 11:14:56;;;;;;;1.13;0.60;;;12.10;99.90;;;;;;6075072;23;20027;-79
2024/02/08 11:17:52;;;;;;;1.13;0.80;;;11.80;99.90;;;;;;6059593;23;20026;-79
2024/02/08 11:20:43;;;;;;;1.67;0.90;;;11.30;99.90;;;;;;6055953;23;20050;-80
2024/02/08 11:23:32;;;;;;;1.05;0.70;;;11.20;99.90;;;;;;6055247;23;20414;-80
2024/02/08 11:26:25;;;;;;;1.15;0.80;;;11.20;99.90;;;;;;6054697;23;20027;-80
2024/02/08 11:29:20;;;;;;;0.80;0.80;;;11.10;99.90;;;;;;6052498;23;20031;-81
2024/02/08 11:32:18;;;;;;;2.25;0.80;;;10.80;99.90;;;;;;6037766;23;20466;-80
2024/02/08 11:35:18;;;;;;;2.00;0.82;;;10.90;99.90;;;;;;6055001;23;20466;-78
2024/02/08 11:38:17;;;;;;;1.30;0.90;;;10.90;99.90;;;;;;6035043;23;20027;-79
2024/02/08 11:41:14;;;;;;;4.35;1.00;;;10.70;99.90;;;;;;6014882;23;20031;-80
2024/02/08 11:44:05;;;;;;;1.80;0.98;;;10.80;99.90;;;;;;6055700;23;20026;-81
2024/02/08 11:46:58;;;;;;;0.98;0.90;;;10.70;99.90;;;;;;6054507;23;20366;-77
2024/02/08 11:50:03;;;;;;;5.78;1.02;;;10.70;99.90;;;;;;6054172;23;20370;-79
2024/02/08 11:52:57;;;;;;;0.70;0.70;;;10.80;99.90;;;;;;6033590;23;20030;-79
2024/02/08 11:55:47;;;;;;;1.92;0.95;;;10.90;99.90;;;;;;6034589;23;20345;-80
2024/02/08 11:58:41;;;;;;;3.85;1.00;;;10.90;99.90;;;;;;6053805;23;20023;-79
2024/02/08 12:01:32;;;;;;;3.15;1.00;;;11.00;99.90;;;;;;6055432;23;20367;-79
2024/02/08 12:04:22;;;;;;;3.20;1.20;;;11.10;99.90;;;;;;6034604;23;20034;-80
2024/02/08 12:07:20;;;;;;;5.32;1.30;;;11.20;99.90;;;;;;6056107;23;20029;-79
2024/02/08 12:10:09;;;;;;;1.05;0.93;;;11.40;99.90;;;;;;6062110;23;20123;-79
2024/02/08 12:12:59;;;;;;;2.53;1.00;;;11.60;99.90;;;;;;6033949;23;20099;-80
2024/02/08 12:15:58;;;;;;;4.63;1.15;;;11.60;99.90;;;;;;6055130;23;20022;-80
2024/02/08 12:18:55;;;;;;;4.70;1.15;;;11.50;99.90;;;;;;6056163;23;20026;-79
2024/02/08 12:22:05;;;;;;;4.70;1.67;;;11.50;99.90;;;;;;6040502;23;20023;-79
2024/02/08 12:24:59;;;;;;;4.47;1.20;;;11.60;99.90;;;;;;6062790;23;20481;-81
2024/02/08 12:28:04;;;;;;;4.85;1.25;;;12.00;99.90;;;;;;6049793;23;20440;-80
2024/02/08 12:30:59;;;;;;;9.18;1.60;;;12.30;99.90;;;;;;6068405;23;20086;-80
2024/02/08 12:33:51;;;;;;;4.28;1.60;;;12.60;99.90;;;;;;6058904;23;20103;-79
2024/02/08 12:36:45;;;;;;;3.88;1.30;;;13.40;99.90;;;;;;6057734;23;20026;-78
2024/02/08 12:39:41;;;;;;;3.53;1.23;;;12.70;99.90;;;;;;6065463;23;20027;-79
2024/02/08 12:42:34;;;;;;;7.10;1.83;;;12.70;99.90;;;;;;6067799;23;20030;-79
2024/02/08 12:45:21;;;;;;;4.93;1.40;;;12.40;99.90;;;;;;6063396;23;20023;-79
2024/02/08 12:48:10;;;;;;;5.82;2.13;;;12.30;99.90;;;;;;6057430;23;20338;-79
2024/02/08 12:51:03;;;;;;;10.00;1.92;;;12.30;99.90;;;;;;6057398;23;20086;-79
2024/02/08 12:53:59;;;;;;;6.30;1.80;;;12.40;99.90;;;;;;6047180;23;20034;-80
2024/02/08 12:56:48;;;;;;;8.50;2.30;;;12.60;99.90;;;;;;6061902;23;20034;-79
2024/02/08 12:59:42;;;;;;;12.88;2.53;;;13.10;99.90;;;;;;6056975;23;20058;-79
2024/02/08 13:02:33;;;;;;;8.10;1.98;;;13.00;99.90;;;;;;6060108;23;20031;-80
2024/02/08 13:05:40;;;;;;;11.65;2.97;;;12.80;99.90;;;;;;6059352;23;20031;-80
2024/02/08 13:08:35;;;;;;;12.35;2.92;;;12.80;99.90;;;;;;6060487;23;20533;-79
2024/02/08 13:11:22;;;;;;;13.88;3.33;;;12.80;99.90;;;;;;6037145;23;20031;-79
2024/02/08 13:14:14;;;;;;;12.48;2.70;;;13.10;99.90;;;;;;6056048;23;20634;-80
2024/02/08 13:17:04;;;;;;;11.45;2.72;;;13.10;99.90;;;;;;6059171;23;20154;-80
2024/02/08 13:19:57;;;;;;;10.20;2.67;;;13.00;99.90;;;;;;6044338;23;20026;-80
2024/02/08 13:22:45;;;;;;;11.05;3.05;;;12.90;99.90;;;;;;6070199;23;20023;-78
2024/02/08 13:25:34;;;;;;;12.07;2.88;;;12.80;99.90;;;;;;6058429;23;20066;-79
2024/02/08 13:28:24;;;;;;;15.55;3.38;;;12.60;99.90;;;;;;6056653;23;20035;-80
2024/02/08 13:31:17;;;;;;;8.98;2.65;;;12.70;99.90;;;;;;6061531;23;20037;-81
2024/02/08 13:34:09;;;;;;;10.98;3.22;;;12.80;99.90;;;;;;6057168;23;20117;-80
2024/02/08 13:36:58;;;;;;;14.88;3.00;;;13.30;99.90;;;;;;6061583;23;20636;-80
2024/02/08 13:39:48;;;;;;;16.08;3.20;;;12.90;99.90;;;;;;6065548;23;20041;-78
2024/02/08 13:42:40;;;;;;;17.98;4.25;;;12.70;99.90;;;;;;6084729;23;20065;-77
2024/02/08 13:45:41;;;;;;;18.85;4.18;;;12.50;99.90;;;;;;6069635;23;20026;-78
2024/02/08 13:48:29;;;;;;;10.43;2.92;;;12.20;99.90;;;;;;6092425;23;20063;-80
2024/02/08 13:51:17;;;;;;;15.98;3.35;;;12.00;99.90;;;;;;6088865;23;20018;-80
2024/02/08 13:54:08;;;;;;;16.88;4.32;;;11.90;99.90;;;;;;6078311;23;20047;-79
2024/02/08 13:56:59;;;;;;;18.08;3.95;;;11.90;99.90;;;;;;6065078;23;20037;-79
2024/02/08 13:59:50;;;;;;;14.00;3.58;;;11.80;99.90;;;;;;6068169;23;20121;-80
2024/02/08 14:02:39;;;;;;;19.58;3.83;;;11.80;99.90;;;;;;6059947;23;20037;-80
2024/02/08 14:05:30;;;;;;;23.20;4.07;;;11.80;99.90;;;;;;6056817;23;20030;-80
2024/02/08 14:08:17;;;;;;;21.02;4.43;;;11.90;99.90;;;;;;6059981;23;20034;-78
2024/02/08 14:11:16;;;;;;;19.80;3.97;;;11.90;99.90;;;;;;6076099;23;20026;-78
2024/02/08 14:14:10;;;;;;;16.63;4.25;;;11.90;99.90;;;;;;6077887;23;20035;-79
2024/02/08 14:16:58;;;;;;;19.50;4.53;;;11.80;99.90;;;;;;6078561;23;20027;-78
2024/02/08 14:19:49;;;;;;;16.25;4.40;;;11.90;99.90;;;;;;6061876;23;20031;-79
2024/02/08 14:22:38;;;;;;;21.63;4.18;;;11.90;99.90;;;;;;6058214;23;20027;-79
2024/02/08 14:25:37;;;;;;;19.27;4.03;;;11.80;99.90;;;;;;6056980;23;20042;-79
2024/02/08 14:28:25;;;;;;;23.35;4.32;;;11.70;99.90;;;;;;6056248;23;20026;-79
2024/02/08 14:31:16;;;;;;;19.73;3.67;;;11.70;99.90;;;;;;6056089;23;20049;-79
2024/02/08 14:34:08;;;;;;;20.20;4.07;;;11.70;99.90;;;;;;6057942;23;20061;-82
2024/02/08 14:36:58;;;;;;;22.25;3.95;;;11.80;99.90;;;;;;6067115;23;20492;-79
2024/02/08 14:39:47;;;;;;;21.35;4.35;;;11.90;99.90;;;;;;6056538;23;20023;-78
2024/02/08 14:42:37;;;;;;;16.65;3.80;;;12.00;99.90;;;;;;6068453;23;20059;-78
2024/02/08 14:45:26;;;;;;;19.70;4.13;;;12.00;99.90;;;;;;6070773;23;20034;-80
2024/02/08 14:48:13;;;;;;;32.63;5.25;;;11.90;99.90;;;;;;6069026;23;20037;-80
2024/02/08 14:54:09;;;;;;;11.25;3.78;;;12.00;99.90;;;;;;6058934;23;20406;-79
2024/02/08 14:57:09;;;;;;;20.35;4.15;;;11.90;99.90;;;;;;6036282;23;20126;-79
2024/02/08 15:00:49;;;;;;;28.95;4.25;;;11.80;99.90;;;;;;6056433;23;20079;-79
2024/02/08 15:03:09;;;;;;;22.17;4.88;;;11.80;99.90;;;;;;6068575;23;20033;-79
2024/02/08 15:06:05;;;;;;;24.95;4.68;;;11.70;99.90;;;;;;6042461;23;20091;-78
2024/02/08 15:15:18;;;;;;;18.58;4.07;;;11.40;99.90;;;;;;6067947;23;20023;-80
2024/02/08 15:18:12;;;;;;;24.48;5.00;;;11.30;99.90;;;;;;6066114;23;20023;-81
2024/02/08 15:21:04;;;;;;;22.88;5.30;;;11.30;99.90;;;;;;6065297;23;20038;-80
2024/02/08 15:27:04;;;;;;;17.48;4.07;;;11.20;99.90;;;;;;6057114;23;20111;-80
2024/02/08 15:30:05;;;;;;;21.52;4.07;;;11.30;99.90;;;;;;6059003;23;20086;-80
2024/02/08 15:33:16;;;;;;;21.08;4.95;;;11.30;99.90;;;;;;6038085;23;20050;-78
2024/02/08 15:36:10;;;;;;;22.20;5.35;;;11.30;99.90;;;;;;6062475;23;20030;-79
2024/02/08 15:42:20;;;;;;;25.98;4.65;;;11.30;99.90;;;;;;6084444;23;20087;-79
2024/02/08 15:45:11;;;;;;;18.80;4.38;;;11.30;99.90;;;;;;6083028;23;20023;-80
2024/02/08 15:48:03;;;;;;;28.85;4.45;;;11.20;99.90;;;;;;6055266;23;20011;-80
2024/02/08 15:50:53;;;;;;;26.52;4.65;;;11.20;99.90;;;;;;6075883;23;20027;-79
2024/02/08 15:53:48;;;;;;;16.75;4.55;;;11.20;99.90;;;;;;6038051;23;20050;-78
2024/02/08 15:56:38;;;;;;;18.33;4.18;;;11.20;99.90;;;;;;6079944;23;20061;-79
2024/02/08 15:59:27;;;;;;;30.73;5.95;;;11.20;99.90;;;;;;6074489;23;20090;-79
2024/02/08 16:02:15;;;;;;;23.65;4.75;;;11.20;99.90;;;;;;6072032;23;20560;-79
2024/02/08 16:05:13;;;;;;;23.77;5.35;;;11.20;99.90;;;;;;6074498;23;20604;-79
2024/02/08 16:08:05;;;;;;;22.05;5.88;;;11.20;99.90;;;;;;6078537;23;20178;-78
2024/02/08 16:10:57;;;;;;;23.17;4.30;;;11.20;99.90;;;;;;6076250;23;20075;-80
2024/02/08 16:14:04;;;;;;;23.50;5.33;;;11.20;99.90;;;;;;6075992;23;20038;-79
2024/02/08 16:17:07;;;;;;;26.10;4.07;;;11.20;99.90;;;;;;6059861;23;20034;-79
2024/02/08 16:23:13;;;;;;;27.80;5.60;;;11.10;99.90;;;;;;6060774;23;20054;-79
2024/02/08 16:26:15;;;;;;;25.33;4.90;;;11.10;99.90;;;;;;6064008;23;20022;-78
2024/02/08 16:29:08;;;;;;;19.63;5.22;;;11.00;99.90;;;;;;6055084;23;20050;-79
2024/02/08 16:31:57;;;;;;;15.98;4.53;;;11.00;99.90;;;;;;6053800;23;20031;-79
2024/02/08 16:34:59;;;;;;;28.38;6.15;;;11.00;99.90;;;;;;6054401;23;20027;-80
2024/02/08 16:38:02;;;;;;;21.52;5.10;;;11.00;99.90;;;;;;6055068;23;20034;-78
2024/02/08 16:40:52;;;;;;;23.75;4.72;;;10.90;99.90;;;;;;6056017;23;20055;-80
2024/02/08 16:43:43;;;;;;;26.50;5.05;;;10.90;99.90;;;;;;6068157;23;20072;-78
2024/02/08 16:46:35;;;;;;;20.60;5.30;;;10.90;99.90;;;;;;6078505;23;20042;-78
2024/02/08 16:49:40;;;;;;;21.92;5.13;;;10.90;99.90;;;;;;6055889;23;20433;-79
2024/02/08 16:52:39;;;;;;;26.17;4.57;;;10.80;99.90;;;;;;6053901;23;20031;-80
2024/02/08 16:55:36;;;;;;;24.30;6.15;;;10.80;99.90;;;;;;6055420;23;20127;-81
2024/02/08 16:58:32;;;;;;;31.20;5.60;;;10.70;99.90;;;;;;6055156;23;20475;-80
2024/02/08 17:01:28;;;;;;;22.27;5.63;;;10.70;99.90;;;;;;6058949;23;20098;-80
2024/02/08 17:04:48;;;;;;;23.58;5.50;;;10.70;99.90;;;;;;6042423;23;20027;-80
2024/02/08 17:10:47;;;;;;;27.77;5.97;;;10.60;99.90;;;;;;6056305;23;20485;-81
2024/02/08 17:13:40;;;;;;;;;;;10.50;99.90;;;;;;6057367;23;20494;-81
2024/02/08 17:16:45;;;;;;;26.95;6.15;;;10.40;99.90;;;;;;6054560;23;20016;-81
2024/02/08 17:25:41;;;;;;;24.48;5.60;;;10.30;99.90;;;;;;6055773;23;20109;-82
2024/02/08 17:28:49;;;;;;;32.00;6.75;;;10.20;99.90;;;;;;6053803;23;20051;-81